Time;durP1;ratioP1;P1;durP2;ratioP2;P2;SDS_P1;SDS_P2;PMS_P1;PMS_P2;Temp;Humidity;BMP_temperature;BMP_pressure;BME280_temperature;BME280_humidity;BME280_pressure;Samples;Min_cycle;Max_cycle;Signal;HPM_P1;HPM_P2
2022/01/19 00:01:29;;;;;;;8.90;4.95;;;;;;;6.06;66.75;102772.69;4936734;29;20039;-88
2022/01/19 00:04:04;;;;;;;9.38;5.10;;;;;;;5.95;66.99;102749.88;4919419;29;20039;-91
2022/01/19 00:06:30;;;;;;;7.63;5.07;;;;;;;6.02;66.97;102776.63;4897321;29;20046;-91
2022/01/19 00:09:06;;;;;;;7.68;4.97;;;;;;;5.71;66.60;102733.56;4903651;29;20032;-90
2022/01/19 00:12:19;;;;;;;8.15;5.32;;;;;;;6.13;66.29;102787.19;4904331;29;20115;-93
2022/01/19 00:15:34;;;;;;;7.25;4.80;;;;;;;6.03;66.53;102788.84;5095557;27;20765;-92
2022/01/19 00:18:19;;;;;;;9.32;4.68;;;;;;;5.89;67.01;102784.75;5068763;28;20040;-92
2022/01/19 00:20:55;;;;;;;7.85;5.00;;;;;;;5.92;66.90;102798.03;5072930;28;20025;-92
2022/01/19 00:23:21;;;;;;;7.35;4.55;;;;;;;5.98;66.45;102809.84;5090047;28;20030;-93
2022/01/19 00:25:54;;;;;;;9.15;5.18;;;;;;;5.70;67.53;102763.75;5108647;28;20032;-93
2022/01/19 00:28:42;;;;;;;10.73;5.53;;;;;;;5.99;66.95;102804.84;5091827;28;20028;-92
2022/01/19 00:32:01;;;;;;;8.13;4.90;;;;;;;6.02;67.26;102805.16;5091362;28;20047;-91
2022/01/19 00:37:34;;;;;;;7.90;4.45;;;;;;;5.59;67.03;102748.75;5093512;28;19926;-92
2022/01/19 00:40:08;;;;;;;7.88;4.80;;;;;;;5.84;67.15;102778.19;5091205;28;20024;-91
2022/01/19 00:42:46;;;;;;;9.60;5.13;;;;;;;5.52;67.35;102735.88;5091724;28;20024;-90
2022/01/19 00:45:24;;;;;;;8.73;5.10;;;;;;;5.50;67.71;102761.66;5107915;28;20030;-90
2022/01/19 00:48:40;;;;;;;7.05;4.57;;;;;;;6.11;67.10;102837.22;5051201;28;20086;-93
2022/01/19 00:54:46;;;;;;;7.32;4.68;;;;;;;5.93;67.39;102830.09;5069162;28;20521;-92
2022/01/19 00:57:28;;;;;;;8.68;4.80;;;;;;;6.00;67.00;102823.91;5067917;28;20037;-93
2022/01/19 01:00:17;;;;;;;6.75;4.57;;;;;;;5.86;67.70;102807.78;5068098;28;20457;-93
2022/01/19 01:02:44;;;;;;;7.20;4.10;;;;;;;5.76;67.41;102779.03;5051138;28;20036;-93
2022/01/19 01:05:27;;;;;;;6.88;4.28;;;;;;;5.73;67.04;102752.78;5067792;28;20025;-92
2022/01/19 01:08:29;;;;;;;6.60;4.30;;;;;;;6.02;67.33;102830.16;5067387;28;20028;-92
2022/01/19 01:11:48;;;;;;;6.82;4.47;;;;;;;6.11;67.09;102829.44;5067656;28;20096;-94
2022/01/19 01:21:02;;;;;;;7.63;4.60;;;;;;;6.01;67.37;102857.78;5067772;28;20112;-91
2022/01/19 01:23:35;;;;;;;6.85;4.05;;;;;;;6.01;67.69;102854.25;5067079;28;20064;-92
2022/01/19 01:26:14;;;;;;;10.63;4.65;;;;;;;5.59;67.42;102778.91;5056028;28;20094;-93
2022/01/19 01:28:57;;;;;;;10.43;5.18;;;;;;;5.77;67.57;102811.06;5074189;28;20090;-93
2022/01/19 01:31:44;;;;;;;8.70;4.85;;;;;;;6.04;67.48;102846.81;5057231;28;20509;-91
2022/01/19 01:34:24;;;;;;;8.60;4.70;;;;;;;5.81;67.53;102814.13;5057344;28;20535;-93
2022/01/19 01:36:50;;;;;;;9.52;4.93;;;;;;;5.92;67.55;102830.84;5090910;28;20062;-93
2022/01/19 01:39:33;;;;;;;8.95;5.45;;;;;;;5.96;67.62;102842.50;5057282;28;20067;-93
2022/01/19 01:42:25;;;;;;;8.73;4.75;;;;;;;6.02;67.49;102858.69;5073819;28;20047;-93
2022/01/19 01:44:58;;;;;;;10.70;5.00;;;;;;;5.95;67.67;102857.16;5057059;28;20036;-92
2022/01/19 01:47:43;;;;;;;9.20;4.80;;;;;;;5.98;67.47;102849.66;5057656;28;20032;-94
2022/01/19 01:53:40;;;;;;;9.82;5.50;;;;;;;5.59;67.67;102782.44;5074457;28;20040;-93
2022/01/19 01:56:46;;;;;;;7.78;4.35;;;;;;;5.97;67.65;102849.50;5073654;28;20516;-93
2022/01/19 01:59:17;;;;;;;9.05;4.95;;;;;;;5.56;67.50;102786.38;5073514;28;20497;-93
2022/01/19 02:01:43;;;;;;;7.07;4.22;;;;;;;6.01;67.87;102862.03;5057306;28;20063;-92
2022/01/19 02:04:42;;;;;;;6.68;4.63;;;;;;;6.03;67.70;102857.94;5056901;28;20028;-92
2022/01/19 02:16:20;;;;;;;8.88;4.47;;;;;;;5.99;67.66;102830.78;5073527;28;20051;-92
2022/01/19 02:22:01;;;;;;;6.05;3.83;;;;;;;6.00;67.22;102832.59;5073256;28;20067;-93
2022/01/19 02:24:50;;;;;;;8.43;4.28;;;;;;;6.02;67.53;102830.16;5057714;28;20106;-93
2022/01/19 02:40:06;;;;;;;7.25;4.22;;;;;;;5.96;67.11;102819.16;5052998;28;20059;-91
2022/01/19 02:40:19;;;;;;;6.57;4.00;;;;;;;6.06;67.21;102825.47;5064724;28;20024;-92
2022/01/19 02:43:20;;;;;;;7.03;4.00;;;;;;;6.02;67.67;102835.38;5052402;28;20078;-94
2022/01/19 02:49:16;;;;;;;6.20;4.05;;;;;;;5.86;67.59;102806.84;5053646;28;20094;-93
2022/01/19 02:51:43;;;;;;;5.57;3.65;;;;;;;5.78;67.04;102787.91;5069436;28;20039;-92
2022/01/19 02:54:34;;;;;;;6.18;3.70;;;;;;;6.10;67.38;102843.19;5069165;28;20033;-94
2022/01/19 02:57:34;;;;;;;7.43;3.80;;;;;;;6.03;67.40;102839.78;5052675;28;20537;-94
2022/01/19 03:08:58;;;;;;;9.88;4.13;;;;;;;6.04;66.59;102841.63;5052546;28;20174;-93
2022/01/19 03:18:07;;;;;;;5.55;3.80;;;;;;;5.85;67.11;102821.50;5052831;28;20402;-93
2022/01/19 03:20:40;;;;;;;6.22;3.80;;;;;;;5.96;67.02;102847.69;5051855;28;20028;-93
2022/01/19 03:23:20;;;;;;;6.95;3.63;;;;;;;5.62;67.48;102808.69;5068609;28;20036;-92
2022/01/19 03:25:49;;;;;;;5.63;3.67;;;;;;;5.98;67.20;102860.03;5068790;28;20025;-92
2022/01/19 03:28:39;;;;;;;6.07;3.88;;;;;;;5.87;67.53;102863.16;5059438;28;20032;-93
2022/01/19 03:31:28;;;;;;;5.95;3.70;;;;;;;5.84;67.74;102861.16;5055271;28;20063;-92
2022/01/19 03:33:58;;;;;;;6.18;3.60;;;;;;;5.96;67.67;102839.91;5071848;28;20036;-94
2022/01/19 03:36:24;;;;;;;5.30;3.90;;;;;;;5.46;67.72;102803.53;5055179;28;20033;-91
2022/01/19 03:38:50;;;;;;;6.25;3.80;;;;;;;5.48;67.86;102809.81;5054652;28;20028;-91
2022/01/19 03:41:28;;;;;;;5.47;3.75;;;;;;;5.66;68.09;102852.31;5071130;28;20139;-91
2022/01/19 03:44:15;;;;;;;6.15;3.38;;;;;;;5.84;68.08;102860.22;5071800;28;20040;-92
2022/01/19 03:50:03;;;;;;;5.90;3.42;;;;;;;5.54;67.23;102817.28;5072874;28;20495;-92
2022/01/19 03:55:50;;;;;;;5.93;3.65;;;;;;;5.68;67.82;102850.81;5072508;28;20051;-92
2022/01/19 03:58:20;;;;;;;4.77;3.40;;;;;;;5.49;68.71;102859.97;5054580;28;20024;-92
2022/01/19 04:00:55;;;;;;;7.55;3.90;;;;;;;5.78;68.01;102842.34;5071715;28;20255;-91
2022/01/19 04:06:26;;;;;;;5.80;3.58;;;;;;;5.66;67.58;102839.34;5071598;28;20132;-93
2022/01/19 04:08:51;;;;;;;5.95;3.80;;;;;;;5.62;67.84;102851.81;5058386;28;20035;-93
2022/01/19 04:11:20;;;;;;;5.90;3.47;;;;;;;5.47;67.93;102849.41;5071962;28;20028;-94
2022/01/19 04:16:49;;;;;;;5.15;3.30;;;;;;;5.87;67.89;102902.03;5071503;28;20097;-93
2022/01/19 04:19:27;;;;;;;6.13;3.40;;;;;;;5.88;67.32;102897.03;5071457;28;20481;-92
2022/01/19 04:22:04;;;;;;;5.22;3.72;;;;;;;5.42;68.09;102860.97;5056118;28;20028;-92
2022/01/19 04:24:37;;;;;;;4.85;3.17;;;;;;;5.34;68.28;102820.34;5079146;28;20105;-92
2022/01/19 04:30:20;;;;;;;5.82;3.65;;;;;;;5.94;67.24;102899.34;5051143;28;20061;-94
2022/01/19 05:04:48;;;;;;;4.10;3.33;;;;;;;5.79;67.40;102939.19;5054146;28;20406;-91
2022/01/19 05:07:30;;;;;;;6.00;3.53;;;;;;;5.56;67.93;102929.81;5040125;28;20403;-91
2022/01/19 05:15:47;;;;;;;4.57;3.33;;;;;;;5.47;67.95;102955.66;5054844;28;20056;-93
2022/01/19 05:18:13;;;;;;;6.88;3.67;;;;;;;5.50;67.32;102934.34;5071051;28;20489;-94
2022/01/19 05:20:48;;;;;;;5.55;3.58;;;;;;;5.20;67.42;102888.78;5054307;28;20040;-91
2022/01/19 05:23:29;;;;;;;5.18;3.13;;;;;;;5.54;67.22;102940.78;5053790;28;20029;-91
2022/01/19 05:25:54;;;;;;;6.00;3.50;;;;;;;5.46;66.86;102929.56;5054010;28;20025;-92
2022/01/19 05:31:41;;;;;;;5.22;3.70;;;;;;;5.42;68.11;102933.53;5055399;28;20039;-93
2022/01/19 05:34:27;;;;;;;5.43;3.50;;;;;;;5.57;67.85;102972.25;5070217;28;20024;-92
2022/01/19 05:37:19;;;;;;;6.07;3.67;;;;;;;5.67;67.34;102976.00;5070494;28;20029;-92
2022/01/19 05:39:46;;;;;;;4.90;3.30;;;;;;;5.46;67.09;102951.25;5053762;28;20027;-92
2022/01/19 05:42:16;;;;;;;5.60;3.75;;;;;;;5.38;67.21;102962.44;5037443;28;20116;-92
2022/01/19 05:45:22;;;;;;;6.75;3.85;;;;;;;5.49;67.68;103007.66;5036951;28;20037;-92
2022/01/19 05:47:57;;;;;;;5.43;3.47;;;;;;;5.42;67.88;102966.25;5054734;28;20033;-91
2022/01/19 05:51:14;;;;;;;5.57;3.90;;;;;;;5.51;67.75;102993.22;5070344;28;20482;-92
2022/01/19 05:54:00;;;;;;;4.75;3.25;;;;;;;5.59;67.81;103002.75;5053724;28;20037;-92
2022/01/19 05:56:25;;;;;;;6.03;3.63;;;;;;;5.16;68.07;102948.75;5070609;28;20033;-91
2022/01/19 05:59:06;;;;;;;5.40;3.70;;;;;;;5.51;68.11;103012.25;5053588;28;20082;-91
2022/01/19 06:01:43;;;;;;;5.85;3.80;;;;;;;5.35;67.89;102993.16;5070260;28;20559;-91
2022/01/19 06:04:49;;;;;;;6.53;4.15;;;;;;;5.49;68.04;103002.47;5069990;28;20029;-91
2022/01/19 06:07:15;;;;;;;5.50;3.55;;;;;;;5.61;67.74;103005.50;5053124;28;20101;-90
2022/01/19 06:12:40;;;;;;;5.45;3.72;;;;;;;5.48;68.05;102996.41;5054607;28;20028;-92
2022/01/19 06:15:45;;;;;;;5.72;3.92;;;;;;;5.59;67.48;103005.34;5052833;28;20057;-93
2022/01/19 06:21:36;;;;;;;7.25;4.25;;;;;;;5.33;67.95;102992.09;5054168;28;20071;-91
2022/01/19 06:24:15;;;;;;;5.38;3.70;;;;;;;5.39;68.30;103026.44;5055546;28;20032;-92
2022/01/19 06:26:51;;;;;;;7.38;4.18;;;;;;;5.47;67.72;103023.03;5056091;28;20504;-90
2022/01/19 06:29:59;;;;;;;6.68;3.92;;;;;;;5.63;67.47;103032.50;5061720;28;20028;-91
2022/01/19 06:32:36;;;;;;;6.43;4.00;;;;;;;5.26;67.96;103012.88;5052671;28;20536;-91
2022/01/19 06:38:23;;;;;;;7.97;3.90;;;;;;;5.16;68.12;103010.94;5053338;28;20040;-90
2022/01/19 06:40:49;;;;;;;5.70;3.83;;;;;;;5.21;68.00;103033.09;5038566;28;20418;-89
2022/01/19 06:43:16;;;;;;;6.43;3.72;;;;;;;5.17;68.18;103022.25;5061171;28;20090;-90
2022/01/19 06:45:43;;;;;;;6.68;4.05;;;;;;;5.35;68.59;103062.22;5067747;28;20040;-92
2022/01/19 06:48:12;;;;;;;6.03;4.30;;;;;;;5.41;68.38;103058.63;5055777;28;20036;-94
2022/01/19 06:51:15;;;;;;;7.75;4.07;;;;;;;5.38;68.21;103058.31;5089730;28;20028;-93
2022/01/19 06:53:54;;;;;;;8.02;4.65;;;;;;;5.41;67.73;103024.03;5069117;28;20032;-92
2022/01/19 06:56:22;;;;;;;8.18;4.30;;;;;;;5.41;67.92;103049.94;5071616;28;20029;-93
2022/01/19 06:58:49;;;;;;;6.63;4.10;;;;;;;5.35;67.77;103044.09;5056729;28;20030;-96
2022/01/19 07:01:52;;;;;;;10.35;4.65;;;;;;;5.23;68.62;103049.75;5069252;28;20028;-93
2022/01/19 07:07:34;;;;;;;6.97;5.10;;;;;;;5.13;68.17;103020.97;5072509;28;20032;-94
2022/01/19 07:10:31;;;;;;;6.20;4.63;;;;;;;5.16;68.61;103041.09;5038787;28;20093;-94
2022/01/19 07:13:00;;;;;;;7.50;4.97;;;;;;;5.41;68.22;103035.31;5052244;28;20044;-95
2022/01/19 07:15:28;;;;;;;8.85;4.95;;;;;;;5.15;68.79;103045.38;5064288;28;20044;-94
2022/01/19 07:17:54;;;;;;;9.13;4.53;;;;;;;5.14;68.16;102991.72;5059524;28;20036;-93
2022/01/19 07:20:32;;;;;;;8.17;5.20;;;;;;;5.17;68.09;103002.44;5057839;28;20028;-94
2022/01/19 07:23:36;;;;;;;7.97;4.40;;;;;;;5.15;68.67;103036.69;5056830;28;20351;-92
2022/01/19 07:26:09;;;;;;;9.43;4.90;;;;;;;5.45;67.99;103044.34;5070941;28;20463;-93
2022/01/19 07:28:47;;;;;;;9.70;5.10;;;;;;;5.25;68.33;103042.16;5076667;28;20033;-96
2022/01/19 07:31:23;;;;;;;6.75;4.70;;;;;;;5.03;69.18;103000.88;5061841;28;20406;-96
2022/01/19 07:33:55;;;;;;;8.88;4.60;;;;;;;5.41;68.02;103034.41;5075439;28;20029;-96
2022/01/19 07:36:29;;;;;;;8.98;5.05;;;;;;;5.34;68.32;103029.31;5078895;28;20035;-96
2022/01/19 07:39:03;;;;;;;8.80;4.70;;;;;;;5.21;68.79;103034.78;5065921;28;20124;-94
2022/01/19 07:41:29;;;;;;;8.55;4.75;;;;;;;5.33;67.75;103033.53;5053353;28;20410;-94
2022/01/19 07:44:06;;;;;;;7.85;4.82;;;;;;;5.05;68.68;103012.31;5064213;28;20028;-96
2022/01/19 07:46:35;;;;;;;7.90;4.90;;;;;;;5.30;68.55;103033.22;5072972;28;20228;-95
2022/01/19 07:49:02;;;;;;;6.50;4.50;;;;;;;5.22;68.42;103034.94;5055322;28;20035;-95
2022/01/19 07:51:28;;;;;;;7.07;4.63;;;;;;;4.56;68.28;102911.03;5063912;28;20023;-94
2022/01/19 07:54:01;;;;;;;7.30;4.65;;;;;;;4.99;68.92;103029.75;5075567;28;20055;-93
2022/01/19 07:56:48;;;;;;;8.63;5.32;;;;;;;5.17;68.92;103032.59;5069368;28;20037;-94
2022/01/19 07:59:27;;;;;;;7.70;4.32;;;;;;;5.25;68.31;103037.88;5073843;28;20040;-96
2022/01/19 08:02:16;;;;;;;6.32;4.32;;;;;;;5.26;68.41;103034.53;5069705;28;20024;-93
2022/01/19 08:05:08;;;;;;;7.35;4.82;;;;;;;5.24;68.77;103035.13;5072104;28;20119;-93
2022/01/19 08:08:16;;;;;;;7.72;4.75;;;;;;;5.26;68.45;103036.22;5068105;28;20029;-95
2022/01/19 08:10:57;;;;;;;7.20;4.82;;;;;;;4.94;68.58;102998.94;5075585;28;20044;-93
2022/01/19 08:13:24;;;;;;;8.52;4.90;;;;;;;4.96;69.29;102997.44;5058182;28;20098;-95
2022/01/19 08:15:55;;;;;;;6.82;4.63;;;;;;;5.15;68.92;103023.72;5072230;28;20127;-95
2022/01/19 08:18:32;;;;;;;6.90;4.30;;;;;;;4.92;68.98;102997.84;5073283;28;20033;-95
2022/01/19 08:21:12;;;;;;;6.57;4.38;;;;;;;4.98;68.84;102995.94;5053243;28;20119;-96
2022/01/19 08:24:18;;;;;;;8.18;4.82;;;;;;;5.00;69.65;103030.69;5068067;28;20033;-93
2022/01/19 08:27:24;;;;;;;8.57;4.78;;;;;;;5.30;68.55;103028.03;5055342;28;20037;-95
2022/01/19 08:29:52;;;;;;;6.43;4.32;;;;;;;4.95;69.33;103018.88;5055431;28;20041;-96
2022/01/19 08:32:26;;;;;;;7.13;4.60;;;;;;;4.98;69.23;102999.44;5059469;28;20090;-94
2022/01/19 08:38:24;;;;;;;8.38;4.95;;;;;;;4.83;69.50;103002.91;5056128;28;20048;-93
2022/01/19 08:41:07;;;;;;;7.13;4.65;;;;;;;4.93;68.98;103015.19;5063526;28;20033;-93
2022/01/19 08:43:47;;;;;;;6.07;4.20;;;;;;;5.05;69.26;103026.94;5077044;28;20020;-94
2022/01/19 08:46:39;;;;;;;10.35;4.85;;;;;;;5.14;69.50;103025.38;5063821;28;20032;-93
2022/01/19 08:49:07;;;;;;;7.20;4.47;;;;;;;4.67;69.18;102962.31;5069713;28;20040;-93
2022/01/19 08:51:34;;;;;;;6.68;4.63;;;;;;;4.91;69.62;103020.22;5076959;28;20021;-94
2022/01/19 08:54:07;;;;;;;8.05;4.80;;;;;;;4.77;69.78;102989.28;5070521;28;20060;-93
2022/01/19 08:59:57;;;;;;;7.43;4.70;;;;;;;4.90;69.59;103019.28;5075097;28;20063;-93
2022/01/19 09:02:24;;;;;;;8.32;4.70;;;;;;;4.96;69.37;103015.56;5058043;28;20052;-92
2022/01/19 09:04:49;;;;;;;7.40;4.53;;;;;;;4.97;69.31;103007.94;5074785;28;20024;-92
2022/01/19 09:07:20;;;;;;;7.50;4.57;;;;;;;4.88;69.69;103023.38;5074455;28;20082;-94
2022/01/19 09:09:46;;;;;;;5.93;4.38;;;;;;;4.67;70.15;102979.53;5075814;28;20028;-92
2022/01/19 09:12:13;;;;;;;6.40;4.50;;;;;;;4.96;69.34;103007.81;5075474;28;20056;-92
2022/01/19 09:14:39;;;;;;;7.05;4.43;;;;;;;4.59;69.70;102949.28;5071881;28;20056;-93
2022/01/19 09:17:07;;;;;;;7.73;4.37;;;;;;;4.56;70.15;102957.63;5054824;28;20029;-93
2022/01/19 09:19:35;;;;;;;7.78;5.03;;;;;;;4.87;70.28;103007.69;5067936;28;20267;-93
2022/01/19 09:22:06;;;;;;;6.75;4.40;;;;;;;4.57;70.01;102938.78;5073236;28;20036;-92
2022/01/19 09:24:39;;;;;;;7.65;4.55;;;;;;;4.75;70.24;102978.75;5091774;28;20128;-95
2022/01/19 09:27:11;;;;;;;7.88;4.68;;;;;;;4.57;70.20;102955.94;5057060;28;20573;-96
2022/01/19 09:29:40;;;;;;;7.85;4.90;;;;;;;4.84;69.69;102982.34;5059476;28;20040;-95
2022/01/19 09:32:11;;;;;;;8.07;4.70;;;;;;;4.56;70.05;102943.78;5040716;28;20025;-95
2022/01/19 09:38:02;;;;;;;7.45;5.00;;;;;;;4.80;70.13;102980.16;5056570;28;20120;-95
2022/01/19 09:40:28;;;;;;;7.00;4.70;;;;;;;4.63;70.03;102960.13;5056667;28;20029;-95
2022/01/19 09:42:59;;;;;;;7.45;4.68;;;;;;;4.80;70.35;102992.19;5051464;28;20036;-95
2022/01/19 09:48:47;;;;;;;6.97;4.50;;;;;;;4.75;69.69;102950.25;5058861;28;20052;-95
2022/01/19 09:51:15;;;;;;;7.93;4.97;;;;;;;4.81;69.73;102979.44;5071516;28;20033;-94
2022/01/19 09:54:14;;;;;;;7.53;4.43;;;;;;;4.88;70.23;102975.84;5064546;28;20037;-94
2022/01/19 09:56:44;;;;;;;7.28;4.38;;;;;;;4.77;70.64;102974.66;5037905;28;20402;-91
2022/01/19 09:59:13;;;;;;;6.65;4.53;;;;;;;4.82;70.23;102963.13;5050741;28;20112;-95
2022/01/19 10:01:52;;;;;;;10.07;5.15;;;;;;;4.77;70.23;102961.72;5043357;28;20033;-93
2022/01/19 10:04:23;;;;;;;8.10;4.60;;;;;;;4.81;70.68;102958.72;5054068;28;20116;-94
2022/01/19 10:07:18;;;;;;;8.68;5.10;;;;;;;4.84;69.80;102961.63;5056094;28;20566;-94
2022/01/19 10:09:54;;;;;;;7.63;4.60;;;;;;;4.83;70.37;102954.63;5056654;28;20036;-94
2022/01/19 10:18:29;;;;;;;7.10;4.50;;;;;;;4.44;70.45;102884.69;5054332;28;20493;-95
2022/01/19 10:21:15;;;;;;;6.70;4.55;;;;;;;4.76;70.22;102922.69;5070821;28;20029;-94
2022/01/19 10:23:50;;;;;;;7.28;4.65;;;;;;;4.52;70.14;102869.13;5055391;28;20055;-94
2022/01/19 10:26:27;;;;;;;7.18;4.50;;;;;;;4.51;70.21;102880.22;5062291;28;20051;-94
2022/01/19 10:31:49;;;;;;;7.28;4.03;;;;;;;4.51;70.10;102885.38;5073355;28;19919;-95
2022/01/19 10:34:23;;;;;;;7.97;4.45;;;;;;;4.64;70.07;102905.06;5069828;28;20040;-93
2022/01/19 10:40:19;;;;;;;8.15;4.60;;;;;;;4.58;70.11;102878.50;5073823;28;20043;-93
2022/01/19 10:46:15;;;;;;;7.25;4.45;;;;;;;4.91;69.84;102908.91;5053809;28;20094;-93
2022/01/19 10:52:03;;;;;;;6.22;4.13;;;;;;;4.57;69.07;102837.84;5054043;28;20055;-93
2022/01/19 10:54:59;;;;;;;6.15;4.20;;;;;;;4.86;69.06;102905.78;5069295;28;20552;-95
2022/01/19 10:58:02;;;;;;;6.53;4.03;;;;;;;4.97;69.04;102900.88;5055048;28;20090;-94
2022/01/19 11:00:57;;;;;;;5.82;4.20;;;;;;;4.79;69.51;102889.41;5071660;28;20111;-94
2022/01/19 11:03:33;;;;;;;8.20;4.50;;;;;;;4.78;69.74;102895.31;5055860;28;20036;-94
2022/01/19 11:06:00;;;;;;;8.68;4.10;;;;;;;4.77;69.93;102881.47;5055785;28;20085;-92
2022/01/19 11:08:40;;;;;;;6.63;4.07;;;;;;;4.74;69.35;102865.63;5054547;28;20016;-92
2022/01/19 11:11:28;;;;;;;6.30;4.50;;;;;;;4.78;70.19;102895.31;5073532;28;20512;-94
2022/01/19 11:13:56;;;;;;;7.28;4.32;;;;;;;4.55;69.99;102856.53;5055416;28;20053;-95
2022/01/19 11:16:55;;;;;;;7.10;4.60;;;;;;;4.79;69.91;102887.75;5052741;28;20107;-93
2022/01/19 11:19:29;;;;;;;8.77;4.57;;;;;;;5.21;68.41;102885.47;5035716;28;20037;-94
2022/01/19 11:22:36;;;;;;;7.18;4.10;;;;;;;5.03;68.27;102891.19;5036159;28;20379;-94
2022/01/19 11:28:44;;;;;;;7.15;4.18;;;;;;;4.89;68.67;102888.00;5073099;28;20131;-93
2022/01/19 11:31:23;;;;;;;7.63;4.28;;;;;;;4.94;68.71;102874.66;5055839;28;20036;-92
2022/01/19 11:33:57;;;;;;;7.15;4.03;;;;;;;4.93;68.81;102876.31;5072523;28;20038;-94
2022/01/19 11:36:43;;;;;;;9.20;4.50;;;;;;;4.90;69.33;102875.97;5071524;28;20029;-93
2022/01/19 11:40:04;;;;;;;9.23;4.97;;;;;;;5.21;68.06;102872.50;5073257;28;20028;-96
2022/01/19 11:42:34;;;;;;;8.10;4.38;;;;;;;4.95;68.17;102872.22;5073303;28;20138;-94
2022/01/19 11:45:39;;;;;;;10.52;5.18;;;;;;;4.99;67.96;102860.53;5075259;28;20031;-96
2022/01/19 11:48:18;;;;;;;9.05;4.90;;;;;;;4.37;68.45;102765.78;5064216;28;20493;-95
2022/01/19 11:51:26;;;;;;;9.88;4.60;;;;;;;4.88;68.21;102851.59;5063041;28;20027;-95
2022/01/19 11:54:33;;;;;;;8.15;5.00;;;;;;;4.13;68.16;102695.81;5057490;28;20041;-96
2022/01/19 11:57:24;;;;;;;9.80;5.10;;;;;;;4.03;68.46;102712.91;5026753;28;20454;-95
2022/01/19 12:00:12;;;;;;;8.05;5.03;;;;;;;4.96;68.54;102849.84;5076560;28;20028;-95
2022/01/19 12:03:00;;;;;;;8.48;4.45;;;;;;;4.06;68.64;102718.44;5058064;28;20044;-96
2022/01/19 12:06:08;;;;;;;9.07;4.97;;;;;;;4.81;68.72;102855.19;5055737;28;20128;-95
2022/01/19 12:09:27;;;;;;;8.18;4.65;;;;;;;4.87;68.38;102848.09;5071431;28;20039;-96
2022/01/19 12:12:14;;;;;;;8.60;4.95;;;;;;;4.02;68.48;102659.38;5053918;28;20453;-96
2022/01/19 12:14:40;;;;;;;;;;;;;;;5.07;68.24;102826.97;5070286;28;20510;-96
2022/01/19 12:17:25;;;;;;;7.80;4.80;;;;;;;4.38;68.44;102725.28;5054718;28;19970;-96
2022/01/19 12:20:41;;;;;;;8.32;4.57;;;;;;;4.99;68.58;102835.56;5058708;28;20028;-95
2022/01/19 12:23:57;;;;;;;10.43;5.00;;;;;;;5.00;68.18;102829.63;5078923;28;20063;-93
2022/01/19 12:26:54;;;;;;;7.82;4.43;;;;;;;5.01;68.25;102815.00;5072140;28;20047;-96
2022/01/19 12:29:37;;;;;;;7.53;4.35;;;;;;;5.19;68.04;102814.44;5056246;28;20025;-92
2022/01/19 12:32:29;;;;;;;8.25;4.80;;;;;;;5.23;68.11;102816.59;5059578;28;20036;-95
2022/01/19 12:35:07;;;;;;;10.38;5.13;;;;;;;4.78;68.14;102756.47;5072787;28;20125;-96
2022/01/19 12:37:36;;;;;;;6.70;4.68;;;;;;;5.13;68.73;102829.31;5072537;28;20029;-95
2022/01/19 12:40:44;;;;;;;8.77;4.85;;;;;;;4.96;68.76;102830.06;5072231;28;20059;-96
2022/01/19 12:46:38;;;;;;;8.07;4.18;;;;;;;4.76;68.69;102778.66;5052763;28;20138;-94
2022/01/19 12:49:50;;;;;;;8.93;4.65;;;;;;;4.94;69.19;102823.78;5036821;28;20094;-95
2022/01/19 12:52:33;;;;;;;7.35;4.75;;;;;;;4.71;69.54;102782.44;5072241;28;20390;-95
2022/01/19 12:55:39;;;;;;;7.55;4.65;;;;;;;5.04;69.17;102821.47;5036811;28;20175;-96
2022/01/19 12:58:20;;;;;;;7.82;4.65;;;;;;;5.03;69.47;102817.00;5074195;28;20037;-95
2022/01/19 13:00:52;;;;;;;8.25;4.80;;;;;;;5.07;68.92;102814.00;5076246;28;20032;-95
2022/01/19 13:03:39;;;;;;;7.28;4.65;;;;;;;4.96;68.87;102804.16;5075552;28;20035;-96
2022/01/19 13:06:18;;;;;;;6.97;4.10;;;;;;;5.08;69.35;102809.78;5073124;28;20474;-96
2022/01/19 13:09:00;;;;;;;7.55;4.05;;;;;;;4.71;69.13;102750.47;5063504;28;20101;-95
2022/01/19 13:11:46;;;;;;;8.82;4.80;;;;;;;5.01;69.35;102795.22;5058034;28;20037;-96
2022/01/19 13:14:12;;;;;;;6.63;4.30;;;;;;;4.96;69.29;102782.53;5072758;28;20038;-96
2022/01/19 13:16:44;;;;;;;7.28;4.65;;;;;;;4.97;69.66;102792.13;5075933;28;20482;-96
2022/01/19 13:19:36;;;;;;;7.68;4.55;;;;;;;5.13;68.99;102786.97;5059115;28;20040;-94
2022/01/19 13:22:21;;;;;;;7.18;4.43;;;;;;;4.98;69.58;102775.84;5076592;28;20068;-96
2022/01/19 13:24:53;;;;;;;8.90;4.38;;;;;;;4.93;69.73;102772.75;5045672;28;20025;-96
2022/01/19 13:27:31;;;;;;;7.75;4.60;;;;;;;4.52;69.66;102700.97;5063168;28;20047;-95
2022/01/19 13:30:05;;;;;;;8.00;4.50;;;;;;;4.94;69.64;102784.03;5063241;28;20029;-96
2022/01/19 13:32:41;;;;;;;6.80;4.50;;;;;;;3.92;69.19;102603.91;5064994;28;20067;-96
2022/01/19 13:35:15;;;;;;;7.63;4.40;;;;;;;3.91;69.71;102599.47;5100082;28;20028;-96
2022/01/19 13:37:55;;;;;;;7.32;4.50;;;;;;;4.99;69.43;102773.41;5071220;28;20037;-96
2022/01/19 13:40:45;;;;;;;7.95;4.40;;;;;;;4.86;69.98;102778.00;5065656;28;20036;-96
2022/01/19 13:43:19;;;;;;;6.88;4.60;;;;;;;4.93;69.79;102780.50;5066698;28;20059;-95
2022/01/19 13:45:50;;;;;;;7.55;4.43;;;;;;;4.02;69.48;102624.81;5072900;28;20024;-96
2022/01/19 13:48:32;;;;;;;7.03;3.88;;;;;;;4.55;69.63;102709.03;5085001;28;20043;-96
2022/01/19 13:51:23;;;;;;;7.82;4.60;;;;;;;4.93;69.37;102785.69;5079339;28;20031;-95
2022/01/19 13:54:04;;;;;;;8.80;4.78;;;;;;;4.80;69.98;102777.34;5042404;28;20037;-96
2022/01/19 13:56:54;;;;;;;8.30;4.80;;;;;;;4.95;69.61;102785.84;5073144;28;20024;-92
2022/01/19 13:59:33;;;;;;;7.05;4.47;;;;;;;4.87;69.83;102785.97;5073788;28;20115;-96
2022/01/19 14:02:03;;;;;;;7.82;4.65;;;;;;;4.95;69.36;102775.50;5072392;28;20029;-91
2022/01/19 14:05:05;;;;;;;6.97;4.32;;;;;;;5.00;68.86;102770.09;5080455;28;20051;-95
2022/01/19 14:07:46;;;;;;;7.75;4.30;;;;;;;4.92;69.71;102775.19;5076069;28;20056;-94
2022/01/19 14:10:13;;;;;;;7.60;4.47;;;;;;;4.89;70.25;102780.97;5075652;28;20027;-96
2022/01/19 14:12:40;;;;;;;7.63;4.88;;;;;;;4.71;69.75;102745.28;5057910;28;20129;-94
2022/01/19 14:15:10;;;;;;;7.60;4.72;;;;;;;4.63;69.82;102729.81;5074700;28;20052;-94
2022/01/19 14:17:50;;;;;;;7.38;4.72;;;;;;;4.70;69.50;102741.78;5078416;28;20033;-94
2022/01/19 14:20:43;;;;;;;7.57;4.53;;;;;;;4.90;70.09;102786.28;5078354;28;20020;-94
2022/01/19 14:23:15;;;;;;;8.73;4.93;;;;;;;4.91;69.27;102787.22;5095638;28;20031;-94
2022/01/19 14:25:41;;;;;;;7.85;4.90;;;;;;;4.84;69.70;102779.50;5080552;28;20024;-96
2022/01/19 14:28:36;;;;;;;8.23;5.03;;;;;;;4.78;70.46;102769.41;5078083;28;20027;-94
2022/01/19 14:31:04;;;;;;;10.95;5.30;;;;;;;4.52;70.00;102706.13;5074790;28;20039;-94
2022/01/19 14:37:16;;;;;;;8.73;5.03;;;;;;;4.53;69.97;102689.84;5074529;28;20051;-93
2022/01/19 14:39:52;;;;;;;8.68;4.90;;;;;;;4.95;69.79;102757.38;5073598;28;20020;-94
2022/01/19 14:42:23;;;;;;;8.32;4.85;;;;;;;4.86;70.00;102760.81;5058644;28;20078;-94
2022/01/19 14:45:01;;;;;;;9.45;4.78;;;;;;;4.70;70.21;102718.50;5058001;28;20032;-93
2022/01/19 14:48:08;;;;;;;10.07;5.35;;;;;;;4.87;70.30;102749.72;5059872;28;20115;-95
2022/01/19 14:50:43;;;;;;;8.73;4.90;;;;;;;4.74;70.02;102724.91;5075824;28;20032;-94
2022/01/19 14:53:10;;;;;;;8.50;4.63;;;;;;;4.74;70.81;102724.91;5056059;28;20102;-92
2022/01/19 14:55:43;;;;;;;7.88;4.85;;;;;;;4.93;70.26;102741.66;5072372;28;20039;-90
2022/01/19 14:58:13;;;;;;;8.43;4.68;;;;;;;5.09;69.65;102762.38;5055552;28;20486;-93
2022/01/19 15:00:53;;;;;;;9.23;4.80;;;;;;;4.28;70.43;102650.97;5056951;28;20116;-91
2022/01/19 15:03:26;;;;;;;8.68;5.18;;;;;;;4.41;69.82;102663.56;5055804;28;20119;-91
2022/01/19 15:06:10;;;;;;;8.25;5.00;;;;;;;4.89;70.55;102755.97;5072853;28;20074;-88
2022/01/19 15:09:01;;;;;;;8.43;4.80;;;;;;;5.04;70.11;102754.13;5072518;28;20025;-92
2022/01/19 15:11:30;;;;;;;8.82;5.13;;;;;;;4.80;69.97;102713.53;5055835;28;20095;-94
2022/01/19 15:13:57;;;;;;;9.05;5.35;;;;;;;4.77;69.56;102686.44;5055616;28;20229;-94
2022/01/19 15:16:24;;;;;;;8.10;5.20;;;;;;;5.01;69.03;102730.47;5072247;28;20060;-93
2022/01/19 15:19:22;;;;;;;8.10;4.80;;;;;;;5.02;70.08;102754.72;5071064;28;20064;-95
2022/01/19 15:22:23;;;;;;;7.13;4.47;;;;;;;4.90;70.35;102747.44;5071680;28;20116;-91
2022/01/19 15:25:03;;;;;;;8.07;4.65;;;;;;;4.44;70.44;102676.81;5070272;28;20024;-93